Time;durP1;ratioP1;P1;durP2;ratioP2;P2;SDS_P1;SDS_P2;PMS_P1;PMS_P2;Temp;Humidity;BMP_temperature;BMP_pressure;BME280_temperature;BME280_humidity;BME280_pressure;Samples;Min_cycle;Max_cycle;Signal;HPM_P1;HPM_P2
2022/08/10 00:02:27;;;;;;;2.17;1.60;;;19.90;91.00;;;;;;5046189;28;20067;-42
2022/08/10 00:04:52;;;;;;;1.63;1.23;;;19.80;91.10;;;;;;5045577;28;20029;-43
2022/08/10 00:07:18;;;;;;;1.55;1.10;;;19.80;91.10;;;;;;5046557;28;20389;-42
2022/08/10 00:09:43;;;;;;;0.90;0.90;;;19.80;91.10;;;;;;5044296;28;20028;-42
2022/08/10 00:12:09;;;;;;;1.13;1.00;;;19.70;91.10;;;;;;5045645;28;20068;-43
2022/08/10 00:14:34;;;;;;;1.17;1.08;;;19.80;91.20;;;;;;5045664;28;20108;-43
2022/08/10 00:17:00;;;;;;;1.15;1.00;;;19.70;91.20;;;;;;5044880;28;20024;-42
2022/08/10 00:19:25;;;;;;;1.00;1.00;;;19.70;91.20;;;;;;5044765;28;20037;-43
2022/08/10 00:21:51;;;;;;;1.30;1.20;;;19.70;91.20;;;;;;5045624;28;20128;-43
2022/08/10 00:24:17;;;;;;;1.88;1.30;;;19.70;91.30;;;;;;5045313;28;20033;-43
2022/08/10 00:26:43;;;;;;;1.55;1.10;;;19.60;91.30;;;;;;5045077;28;20027;-43
2022/08/10 00:29:08;;;;;;;1.40;1.30;;;19.60;91.40;;;;;;5045901;28;20025;-44
2022/08/10 00:31:34;;;;;;;1.20;1.10;;;19.70;91.40;;;;;;5044642;28;20036;-42
2022/08/10 00:33:59;;;;;;;1.20;1.10;;;19.60;91.50;;;;;;5045737;28;20155;-42
2022/08/10 00:36:25;;;;;;;1.50;1.13;;;19.60;91.50;;;;;;5045339;28;20025;-43
2022/08/10 00:38:50;;;;;;;2.55;1.27;;;19.60;91.50;;;;;;5044874;28;20028;-42
2022/08/10 00:41:16;;;;;;;1.75;1.30;;;19.50;91.50;;;;;;5045313;28;20079;-43
2022/08/10 00:43:41;;;;;;;1.73;1.45;;;19.50;91.60;;;;;;5045080;28;20381;-42
2022/08/10 00:46:07;;;;;;;1.13;1.10;;;19.50;91.70;;;;;;5044689;28;20653;-42
2022/08/10 00:48:32;;;;;;;1.30;1.20;;;19.50;91.70;;;;;;5044027;28;20021;-42
2022/08/10 00:50:58;;;;;;;1.27;1.17;;;19.50;91.80;;;;;;5044227;28;20029;-43
2022/08/10 00:53:27;;;;;;;1.13;1.02;;;19.40;91.90;;;;;;5044296;28;20526;-42
2022/08/10 00:55:54;;;;;;;1.30;1.10;;;19.40;91.90;;;;;;5044998;28;20083;-43
2022/08/10 00:58:20;;;;;;;1.23;0.80;;;19.40;91.80;;;;;;5045349;28;20036;-43
2022/08/10 01:00:47;;;;;;;1.40;1.15;;;19.40;91.80;;;;;;5044253;28;20087;-43
2022/08/10 01:03:13;;;;;;;0.88;0.82;;;19.40;91.90;;;;;;5045387;28;20116;-43
2022/08/10 01:06:00;;;;;;;1.25;1.10;;;19.40;91.90;;;;;;5045087;28;20053;-42
2022/08/10 01:08:50;;;;;;;1.10;1.00;;;19.40;91.90;;;;;;5043836;28;20472;-42
2022/08/10 01:11:34;;;;;;;1.13;1.00;;;19.40;91.90;;;;;;5045686;28;20021;-43
2022/08/10 01:14:10;;;;;;;1.67;1.10;;;19.30;91.90;;;;;;5042334;28;20146;-43
2022/08/10 01:16:52;;;;;;;0.90;0.90;;;19.30;91.90;;;;;;5044793;28;20068;-43
2022/08/10 01:19:36;;;;;;;1.13;1.02;;;19.30;91.90;;;;;;5045415;28;20025;-44
2022/08/10 01:22:39;;;;;;;3.05;1.08;;;19.20;92.00;;;;;;5044276;28;20036;-43
2022/08/10 01:25:13;;;;;;;1.50;1.00;;;19.20;92.10;;;;;;5037587;28;20495;-42
2022/08/10 01:27:52;;;;;;;1.20;1.10;;;19.20;92.10;;;;;;5043731;28;20025;-42
2022/08/10 01:30:19;;;;;;;1.20;1.10;;;19.10;92.20;;;;;;5047288;28;20025;-43
2022/08/10 01:33:05;;;;;;;1.25;1.15;;;19.10;92.30;;;;;;5048031;28;20036;-43
2022/08/10 01:35:53;;;;;;;1.83;1.02;;;19.10;92.40;;;;;;5047429;28;20056;-43
2022/08/10 01:38:28;;;;;;;2.92;1.00;;;19.00;92.40;;;;;;5048896;28;20036;-42
2022/08/10 01:41:06;;;;;;;1.42;1.08;;;19.00;92.40;;;;;;5048785;28;20460;-43
2022/08/10 01:43:38;;;;;;;1.17;1.08;;;19.00;92.50;;;;;;5048606;28;20170;-43
2022/08/10 01:46:05;;;;;;;1.55;1.30;;;18.90;92.50;;;;;;5048330;28;20451;-42
2022/08/10 01:48:38;;;;;;;1.38;1.08;;;18.90;92.70;;;;;;5047016;28;20073;-42
2022/08/10 01:51:25;;;;;;;1.58;1.48;;;18.80;92.70;;;;;;5048879;28;20047;-42
2022/08/10 01:54:02;;;;;;;1.23;1.13;;;18.80;92.90;;;;;;5048029;28;20029;-42
2022/08/10 01:56:31;;;;;;;1.30;1.20;;;18.70;92.80;;;;;;5047265;28;20033;-42
2022/08/10 01:59:01;;;;;;;1.10;1.00;;;18.70;92.90;;;;;;5048187;28;20096;-43
2022/08/10 02:01:32;;;;;;;1.90;1.10;;;18.70;92.90;;;;;;5047619;28;20067;-42
2022/08/10 02:04:04;;;;;;;1.33;1.23;;;18.60;93.00;;;;;;5047235;28;20024;-42
2022/08/10 02:06:31;;;;;;;1.55;1.38;;;18.60;93.10;;;;;;5048184;28;20047;-43
2022/08/10 02:08:59;;;;;;;1.40;1.30;;;18.60;93.10;;;;;;5048045;28;20027;-43
2022/08/10 02:11:27;;;;;;;1.48;1.38;;;18.60;93.10;;;;;;5047308;28;20087;-44
2022/08/10 02:13:55;;;;;;;1.55;1.45;;;18.50;93.20;;;;;;5047463;28;20016;-42
2022/08/10 02:16:24;;;;;;;1.60;1.50;;;18.50;93.30;;;;;;5048035;28;20043;-44
2022/08/10 02:18:51;;;;;;;1.40;1.30;;;18.50;93.60;;;;;;5048260;28;20067;-43
2022/08/10 02:21:18;;;;;;;2.00;1.38;;;18.50;93.50;;;;;;5047980;28;20021;-43
2022/08/10 02:23:45;;;;;;;1.92;1.42;;;18.50;93.60;;;;;;5046671;28;20033;-42
2022/08/10 02:26:11;;;;;;;2.10;1.73;;;18.50;93.70;;;;;;5047798;28;20040;-43
2022/08/10 02:28:40;;;;;;;1.65;1.23;;;18.50;93.80;;;;;;5047464;28;20024;-42
2022/08/10 02:31:16;;;;;;;1.40;1.30;;;18.40;93.80;;;;;;5046925;28;20033;-42
2022/08/10 02:33:46;;;;;;;2.40;1.80;;;18.30;93.90;;;;;;5047173;28;20487;-43
2022/08/10 02:36:12;;;;;;;2.22;1.67;;;18.30;94.10;;;;;;5047206;28;20028;-43
2022/08/10 02:38:46;;;;;;;2.00;1.77;;;18.30;94.30;;;;;;5046791;28;20021;-44
2022/08/10 02:41:28;;;;;;;1.80;1.70;;;18.20;94.40;;;;;;5046354;28;20179;-43
2022/08/10 02:44:06;;;;;;;4.40;1.50;;;18.20;94.40;;;;;;5047515;28;20060;-43
2022/08/10 02:46:40;;;;;;;1.77;1.67;;;18.20;94.50;;;;;;5046733;28;20047;-42
2022/08/10 02:49:10;;;;;;;1.95;1.80;;;18.20;94.60;;;;;;5047246;28;20031;-43
2022/08/10 02:51:45;;;;;;;2.35;2.10;;;18.10;94.70;;;;;;5046023;28;20511;-44
2022/08/10 02:54:19;;;;;;;1.75;1.65;;;18.10;94.70;;;;;;5047669;28;20153;-43
2022/08/10 02:57:00;;;;;;;1.85;1.50;;;18.10;94.90;;;;;;5046548;28;20564;-43
2022/08/10 02:59:34;;;;;;;2.13;1.92;;;18.00;94.80;;;;;;5046510;28;20036;-43
2022/08/10 03:02:04;;;;;;;2.80;1.42;;;18.00;95.00;;;;;;5046558;28;20093;-43
2022/08/10 03:04:39;;;;;;;2.05;1.90;;;18.00;95.00;;;;;;5046680;28;20127;-43
2022/08/10 03:07:09;;;;;;;3.40;1.83;;;18.00;95.00;;;;;;5045551;28;20036;-47
2022/08/10 03:09:39;;;;;;;2.00;1.80;;;17.90;95.00;;;;;;5046801;28;20048;-42
2022/08/10 03:12:07;;;;;;;1.80;1.70;;;17.90;95.10;;;;;;5046595;28;20056;-43
2022/08/10 03:14:36;;;;;;;2.22;2.03;;;17.90;95.30;;;;;;5025847;28;20025;-42
2022/08/10 03:17:02;;;;;;;2.47;1.90;;;17.90;95.30;;;;;;5041221;28;20029;-43
2022/08/10 03:19:29;;;;;;;1.95;1.75;;;17.80;95.40;;;;;;5046436;28;20033;-42
2022/08/10 03:21:56;;;;;;;2.22;2.03;;;17.80;95.40;;;;;;5045670;28;20081;-43
2022/08/10 03:24:24;;;;;;;2.40;2.20;;;17.80;95.60;;;;;;5047030;28;20521;-43
2022/08/10 03:26:52;;;;;;;2.17;1.98;;;17.70;95.70;;;;;;5045412;28;20072;-43
2022/08/10 03:29:19;;;;;;;3.95;1.88;;;17.70;95.90;;;;;;5047002;28;20029;-43
2022/08/10 03:31:45;;;;;;;2.38;2.17;;;17.70;95.90;;;;;;5046401;28;20437;-43
2022/08/10 03:34:12;;;;;;;2.13;1.95;;;17.70;96.00;;;;;;5045991;28;20017;-44
2022/08/10 03:36:38;;;;;;;4.18;2.30;;;17.70;96.10;;;;;;5045772;28;20025;-43
2022/08/10 03:39:03;;;;;;;3.17;2.38;;;17.60;96.10;;;;;;5046185;28;20084;-44
2022/08/10 03:41:54;;;;;;;2.53;2.33;;;17.60;96.40;;;;;;5045473;28;20029;-43
2022/08/10 03:44:24;;;;;;;2.53;2.33;;;17.60;96.50;;;;;;5035960;28;20025;-43
2022/08/10 03:46:50;;;;;;;1.88;1.77;;;17.60;96.50;;;;;;5046085;28;20383;-42
2022/08/10 03:49:18;;;;;;;3.10;1.80;;;17.60;96.50;;;;;;5045868;28;20021;-43
2022/08/10 03:51:48;;;;;;;2.90;2.15;;;17.60;96.60;;;;;;5045434;28;20033;-43
2022/08/10 03:54:15;;;;;;;2.35;2.00;;;17.60;96.70;;;;;;5046190;28;20380;-43
2022/08/10 03:56:40;;;;;;;2.33;1.92;;;17.50;96.70;;;;;;5045345;28;20036;-43
2022/08/10 03:59:09;;;;;;;2.00;1.65;;;17.50;96.70;;;;;;5045604;28;20010;-43
2022/08/10 04:01:34;;;;;;;3.72;2.22;;;17.50;96.80;;;;;;5045637;28;20025;-42
2022/08/10 04:04:00;;;;;;;2.13;1.92;;;17.50;96.80;;;;;;5045205;28;20549;-43
2022/08/10 04:06:26;;;;;;;2.08;1.88;;;17.50;96.80;;;;;;5045821;28;20519;-43
2022/08/10 04:08:52;;;;;;;3.20;2.53;;;17.50;96.90;;;;;;5044977;28;20052;-44
2022/08/10 04:11:17;;;;;;;2.83;2.55;;;17.50;97.00;;;;;;5046615;28;20048;-43
2022/08/10 04:13:43;;;;;;;2.65;2.45;;;17.50;97.10;;;;;;5045660;28;20850;-43
2022/08/10 04:16:08;;;;;;;2.50;2.30;;;17.50;97.20;;;;;;5045269;28;20021;-43
2022/08/10 04:18:34;;;;;;;3.72;2.83;;;17.40;97.30;;;;;;5045787;28;20465;-43
2022/08/10 04:21:15;;;;;;;2.60;2.38;;;17.40;97.30;;;;;;5045739;28;20024;-44
2022/08/10 04:23:45;;;;;;;4.13;2.67;;;17.40;97.50;;;;;;5044913;28;20021;-44
2022/08/10 04:26:11;;;;;;;2.40;2.20;;;17.40;97.50;;;;;;5045912;28;20045;-43
2022/08/10 04:28:38;;;;;;;2.10;1.90;;;17.40;97.60;;;;;;5045243;28;20025;-42
2022/08/10 04:31:06;;;;;;;2.20;2.10;;;17.30;97.60;;;;;;5045475;28;20031;-43
2022/08/10 04:33:33;;;;;;;2.47;1.80;;;17.30;97.60;;;;;;5046132;28;20021;-43
2022/08/10 04:35:59;;;;;;;2.00;1.90;;;17.30;97.60;;;;;;5034794;28;20048;-43
2022/08/10 04:38:28;;;;;;;2.40;2.20;;;17.40;97.70;;;;;;5044468;28;20025;-43
2022/08/10 04:40:54;;;;;;;2.97;2.70;;;17.40;97.70;;;;;;5045563;28;20048;-43
2022/08/10 04:43:19;;;;;;;3.33;3.03;;;17.40;97.80;;;;;;5045554;28;20056;-42
2022/08/10 04:45:46;;;;;;;3.20;2.40;;;17.40;97.90;;;;;;5044122;28;20037;-42
2022/08/10 04:48:11;;;;;;;4.18;3.78;;;17.30;97.90;;;;;;5045806;28;20021;-43
2022/08/10 04:50:37;;;;;;;3.80;3.40;;;17.30;98.10;;;;;;5044725;28;20031;-43
2022/08/10 04:53:02;;;;;;;2.90;2.70;;;17.30;98.30;;;;;;5044537;28;20052;-43
2022/08/10 04:55:28;;;;;;;3.17;2.88;;;17.30;98.30;;;;;;5045134;28;20361;-42
2022/08/10 04:57:53;;;;;;;3.75;3.25;;;17.30;98.40;;;;;;5044588;28;20037;-42
2022/08/10 05:00:19;;;;;;;3.63;2.92;;;17.20;98.40;;;;;;5044593;28;20024;-42
2022/08/10 05:02:45;;;;;;;3.00;2.80;;;17.30;98.50;;;;;;5044673;28;20053;-41
2022/08/10 05:05:10;;;;;;;2.80;2.30;;;17.20;98.50;;;;;;5046197;28;20028;-43
2022/08/10 05:07:36;;;;;;;2.60;2.40;;;17.30;98.60;;;;;;5049145;28;20028;-43
2022/08/10 05:10:03;;;;;;;2.60;2.40;;;17.30;98.50;;;;;;5049057;28;20044;-42
2022/08/10 05:12:28;;;;;;;2.90;2.70;;;17.30;98.60;;;;;;5048190;28;20024;-42
2022/08/10 05:14:54;;;;;;;3.33;2.80;;;17.30;98.60;;;;;;5048946;28;20025;-43
2022/08/10 05:17:20;;;;;;;3.20;2.90;;;17.40;98.70;;;;;;5049485;28;20049;-43
2022/08/10 05:19:45;;;;;;;3.10;2.80;;;17.40;98.70;;;;;;5047864;28;20472;-43
2022/08/10 05:22:11;;;;;;;4.07;3.40;;;17.40;98.70;;;;;;5049920;28;20025;-43
2022/08/10 05:24:36;;;;;;;3.20;2.90;;;17.40;98.80;;;;;;5048707;28;20037;-42
2022/08/10 05:27:02;;;;;;;3.08;2.80;;;17.40;98.80;;;;;;5047901;28;20415;-43
2022/08/10 05:29:28;;;;;;;4.28;2.80;;;17.50;98.80;;;;;;5049397;28;20472;-42
2022/08/10 05:31:54;;;;;;;4.38;3.28;;;17.40;98.80;;;;;;5048942;28;20100;-42
2022/08/10 05:34:25;;;;;;;3.42;3.13;;;17.50;98.90;;;;;;5048727;28;20464;-42
2022/08/10 05:36:52;;;;;;;4.80;3.33;;;17.50;98.90;;;;;;5049029;28;20074;-43
2022/08/10 05:39:18;;;;;;;3.58;3.28;;;17.60;99.00;;;;;;5048593;28;20492;-43
2022/08/10 05:41:46;;;;;;;3.33;2.92;;;17.60;99.10;;;;;;5047362;28;20083;-43
2022/08/10 05:44:12;;;;;;;3.13;2.80;;;17.60;99.10;;;;;;5057391;28;20547;-43
2022/08/10 05:46:37;;;;;;;4.28;3.28;;;17.70;99.10;;;;;;5057421;28;20059;-44
2022/08/10 05:49:03;;;;;;;5.88;3.42;;;17.70;99.10;;;;;;5045481;28;20476;-43
2022/08/10 05:51:29;;;;;;;3.83;2.90;;;17.80;99.10;;;;;;5047010;28;20072;-44
2022/08/10 05:53:54;;;;;;;6.68;3.00;;;17.80;99.10;;;;;;5047705;28;20017;-44
2022/08/10 05:56:20;;;;;;;4.20;3.13;;;17.90;99.20;;;;;;5046401;28;20023;-43
2022/08/10 05:58:46;;;;;;;3.42;3.13;;;17.90;99.10;;;;;;5046264;28;20536;-43
2022/08/10 06:01:15;;;;;;;3.45;3.15;;;17.90;99.20;;;;;;5047035;28;20083;-43
2022/08/10 06:03:52;;;;;;;3.78;3.20;;;18.00;99.20;;;;;;5045948;28;20052;-44
2022/08/10 06:06:19;;;;;;;3.90;3.33;;;18.00;99.20;;;;;;5048009;28;20452;-44
2022/08/10 06:08:48;;;;;;;3.08;2.78;;;18.10;99.20;;;;;;5045929;28;20025;-43
2022/08/10 06:11:15;;;;;;;2.60;2.25;;;18.10;99.10;;;;;;5047562;28;20036;-43
2022/08/10 06:16:31;;;;;;;6.57;2.95;;;18.20;99.10;;;;;;5045074;28;20156;-43
2022/08/10 06:18:58;;;;;;;2.60;2.40;;;18.30;99.00;;;;;;5046706;28;20091;-43
2022/08/10 06:21:25;;;;;;;3.92;2.60;;;18.30;98.90;;;;;;5047496;28;20435;-43
2022/08/10 06:23:52;;;;;;;2.85;2.40;;;18.40;98.90;;;;;;5046296;28;20388;-44
2022/08/10 06:26:18;;;;;;;2.83;2.55;;;18.40;98.90;;;;;;5047310;28;20040;-44
2022/08/10 06:28:53;;;;;;;3.17;2.65;;;18.40;98.80;;;;;;5045379;28;20755;-44
2022/08/10 06:31:19;;;;;;;2.95;2.40;;;18.50;98.80;;;;;;5047205;28;20032;-46
2022/08/10 06:33:46;;;;;;;3.92;2.70;;;18.60;98.80;;;;;;5045539;28;20452;-43
2022/08/10 06:36:12;;;;;;;3.20;2.80;;;18.60;98.70;;;;;;5047495;28;20039;-42
2022/08/10 06:38:39;;;;;;;2.92;2.63;;;18.60;98.70;;;;;;5045926;28;20029;-43
2022/08/10 06:41:17;;;;;;;2.97;2.50;;;18.70;98.90;;;;;;5046554;28;20048;-43
2022/08/10 06:43:49;;;;;;;2.63;2.42;;;18.70;98.50;;;;;;5045231;28;20368;-42
2022/08/10 06:46:20;;;;;;;2.30;2.00;;;18.80;98.50;;;;;;5046871;28;20067;-42
2022/08/10 06:48:50;;;;;;;2.33;2.10;;;18.90;98.40;;;;;;5045677;28;20029;-43
2022/08/10 06:51:38;;;;;;;2.90;2.17;;;18.90;98.30;;;;;;5046648;28;20025;-43
2022/08/10 06:54:07;;;;;;;4.57;2.88;;;19.00;98.20;;;;;;5045532;28;20020;-43
2022/08/10 06:56:38;;;;;;;2.65;1.80;;;19.10;98.20;;;;;;5044052;28;20651;-43
2022/08/10 06:59:24;;;;;;;3.40;2.17;;;19.10;98.00;;;;;;5045413;28;20751;-42
2022/08/10 07:02:03;;;;;;;2.60;1.92;;;19.20;97.90;;;;;;5046537;28;20053;-43
2022/08/10 07:04:33;;;;;;;2.63;1.90;;;19.30;97.80;;;;;;5046622;28;20040;-43
2022/08/10 07:07:03;;;;;;;3.40;1.85;;;19.30;97.70;;;;;;5045265;28;20067;-43
2022/08/10 07:09:30;;;;;;;2.60;1.80;;;19.40;97.60;;;;;;5046697;28;20033;-43
2022/08/10 07:11:58;;;;;;;2.10;1.55;;;19.50;97.40;;;;;;5046046;28;20128;-43
2022/08/10 07:14:26;;;;;;;2.63;1.70;;;19.60;97.30;;;;;;5046666;28;20104;-43
2022/08/10 07:16:53;;;;;;;2.40;2.10;;;19.60;97.20;;;;;;5046536;28;20025;-43
2022/08/10 07:19:20;;;;;;;1.70;1.60;;;19.70;97.10;;;;;;5046355;28;20017;-42
2022/08/10 07:21:46;;;;;;;2.03;1.83;;;19.70;97.00;;;;;;5046437;28;20036;-42
2022/08/10 07:24:14;;;;;;;1.73;1.50;;;19.80;96.90;;;;;;5047163;28;20021;-43
2022/08/10 07:26:49;;;;;;;1.90;1.27;;;19.90;96.70;;;;;;5045962;28;20090;-43
2022/08/10 07:29:17;;;;;;;1.50;1.40;;;20.00;96.60;;;;;;5046187;28;20029;-43
2022/08/10 07:31:43;;;;;;;1.95;1.52;;;20.10;96.50;;;;;;5046046;28;20910;-42
2022/08/10 07:34:13;;;;;;;2.35;1.60;;;20.10;96.30;;;;;;5045690;28;20036;-43
2022/08/10 07:36:41;;;;;;;2.72;1.27;;;20.20;96.20;;;;;;5045293;28;20029;-43
2022/08/10 07:39:09;;;;;;;3.17;1.02;;;20.30;96.10;;;;;;5045939;28;20048;-43
2022/08/10 07:41:39;;;;;;;1.50;1.40;;;20.30;96.00;;;;;;5045047;28;20027;-43
2022/08/10 07:44:07;;;;;;;1.85;1.13;;;20.40;95.80;;;;;;5045941;28;20468;-43
2022/08/10 07:46:37;;;;;;;1.65;1.20;;;20.50;95.70;;;;;;5045123;28;20187;-43
2022/08/10 07:49:07;;;;;;;1.50;1.23;;;20.50;95.50;;;;;;5044937;28;20056;-42
2022/08/10 07:51:35;;;;;;;1.30;1.20;;;20.60;95.40;;;;;;5045748;28;20024;-43
2022/08/10 07:54:04;;;;;;;1.27;1.05;;;20.60;95.30;;;;;;5044586;28;20494;-43
2022/08/10 07:56:32;;;;;;;1.08;1.02;;;20.80;95.20;;;;;;5045305;28;20079;-42
2022/08/10 07:59:07;;;;;;;3.60;1.10;;;20.80;95.10;;;;;;5044367;28;20559;-43
2022/08/10 08:01:37;;;;;;;2.55;1.25;;;20.90;94.90;;;;;;5044292;28;20025;-43
2022/08/10 08:04:05;;;;;;;1.58;0.90;;;20.90;94.80;;;;;;5045814;28;20036;-43
2022/08/10 08:06:32;;;;;;;1.30;1.20;;;21.00;94.70;;;;;;5044571;28;20048;-43
2022/08/10 08:08:59;;;;;;;1.45;1.10;;;21.10;94.50;;;;;;5044265;28;20459;-44
2022/08/10 08:11:27;;;;;;;1.38;1.00;;;21.20;94.30;;;;;;5044983;28;20030;-43
2022/08/10 08:13:53;;;;;;;1.50;1.30;;;21.20;94.10;;;;;;5045447;28;20333;-43
2022/08/10 08:16:20;;;;;;;1.65;1.23;;;21.30;93.80;;;;;;5044303;28;20029;-43
2022/08/10 08:18:49;;;;;;;1.85;1.20;;;21.40;93.60;;;;;;5044339;28;20056;-43
2022/08/10 08:21:15;;;;;;;2.15;1.33;;;21.50;93.50;;;;;;5045803;28;20029;-43
2022/08/10 08:23:42;;;;;;;1.50;1.20;;;21.60;93.30;;;;;;5044789;28;20457;-43
2022/08/10 08:26:09;;;;;;;1.70;1.20;;;21.70;93.10;;;;;;5044820;28;20051;-43
2022/08/10 08:28:35;;;;;;;2.05;1.40;;;21.70;93.00;;;;;;5045187;28;20029;-42
2022/08/10 08:31:03;;;;;;;1.58;1.27;;;21.80;92.90;;;;;;5044020;28;20024;-42
2022/08/10 08:33:30;;;;;;;1.67;1.27;;;21.90;92.80;;;;;;5041413;28;20032;-43
2022/08/10 08:35:57;;;;;;;1.35;1.10;;;22.00;92.60;;;;;;5045327;28;20141;-43
2022/08/10 08:38:23;;;;;;;1.48;1.38;;;22.10;92.50;;;;;;5044612;28;20033;-44
2022/08/10 08:41:02;;;;;;;1.10;1.10;;;22.20;92.60;;;;;;5044474;28;20056;-43
2022/08/10 08:43:48;;;;;;;1.40;1.13;;;22.30;92.20;;;;;;5043731;28;20033;-43
2022/08/10 08:46:42;;;;;;;2.00;1.13;;;22.30;92.10;;;;;;5044956;28;20040;-43
2022/08/10 08:49:32;;;;;;;1.80;1.20;;;22.40;92.00;;;;;;5021742;28;20037;-43
2022/08/10 08:52:16;;;;;;;1.23;1.13;;;22.40;91.80;;;;;;5044189;28;20021;-44
2022/08/10 08:54:42;;;;;;;1.25;1.15;;;22.50;91.50;;;;;;5034097;28;20124;-43
2022/08/10 08:57:27;;;;;;;1.17;1.08;;;22.60;91.40;;;;;;5044538;28;20382;-43
2022/08/10 09:00:13;;;;;;;1.73;1.38;;;22.70;91.10;;;;;;5034718;28;20099;-42
2022/08/10 09:02:48;;;;;;;1.20;1.10;;;22.80;90.90;;;;;;5044235;28;20057;-43
2022/08/10 09:05:44;;;;;;;1.65;1.27;;;22.90;90.80;;;;;;5044149;28;20041;-43
2022/08/10 09:08:21;;;;;;;1.13;1.02;;;22.90;90.70;;;;;;5044806;28;20369;-43
2022/08/10 09:11:18;;;;;;;1.98;1.60;;;23.00;90.60;;;;;;5044726;28;20108;-42
2022/08/10 09:14:03;;;;;;;1.52;1.20;;;23.10;90.20;;;;;;5044367;28;20899;-43
2022/08/10 09:16:37;;;;;;;2.20;1.20;;;23.30;90.00;;;;;;5044580;28;20037;-43
2022/08/10 09:19:40;;;;;;;1.38;1.15;;;23.30;89.30;;;;;;5043411;28;20021;-43
2022/08/10 09:22:24;;;;;;;1.33;1.20;;;23.30;89.30;;;;;;5025023;28;20604;-44
2022/08/10 09:25:15;;;;;;;1.45;1.15;;;23.40;89.20;;;;;;5043104;28;20465;-43
2022/08/10 09:27:51;;;;;;;1.65;1.17;;;23.50;89.00;;;;;;5044263;28;20436;-44
2022/08/10 09:30:37;;;;;;;3.15;1.20;;;23.50;88.80;;;;;;5044494;28;20021;-43
2022/08/10 09:33:10;;;;;;;2.22;1.40;;;23.60;88.40;;;;;;5043259;28;20528;-43
2022/08/10 09:35:54;;;;;;;1.55;1.30;;;23.60;87.90;;;;;;5041156;28;20480;-42
2022/08/10 09:38:26;;;;;;;2.25;1.30;;;23.70;86.60;;;;;;5044593;28;20037;-42
2022/08/10 09:41:30;;;;;;;1.65;1.10;;;23.80;86.10;;;;;;5043437;28;20021;-43
2022/08/10 09:44:10;;;;;;;1.30;1.20;;;23.80;84.90;;;;;;5044007;28;20025;-43
2022/08/10 09:46:59;;;;;;;1.90;1.50;;;24.00;83.00;;;;;;5043388;28;20449;-43
2022/08/10 09:49:41;;;;;;;2.13;1.17;;;24.10;82.50;;;;;;5043827;28;20538;-43
2022/08/10 09:52:44;;;;;;;1.50;1.38;;;24.10;81.60;;;;;;5047504;28;20032;-43
2022/08/10 09:55:46;;;;;;;1.60;1.23;;;24.20;80.30;;;;;;5046759;28;20395;-44
2022/08/10 09:58:24;;;;;;;2.05;1.30;;;24.30;78.50;;;;;;5028525;28;20040;-43
2022/08/10 10:01:09;;;;;;;1.30;1.10;;;24.40;77.80;;;;;;5043831;28;20499;-43
2022/08/10 10:03:43;;;;;;;1.88;1.30;;;24.40;76.20;;;;;;5047067;28;20392;-43
2022/08/10 10:06:27;;;;;;;1.38;1.05;;;24.50;76.00;;;;;;5047532;28;20040;-43
2022/08/10 10:09:03;;;;;;;1.40;1.20;;;24.60;76.40;;;;;;5046434;28;20025;-44
2022/08/10 10:12:08;;;;;;;1.63;1.15;;;24.70;76.70;;;;;;5046897;28;20045;-43
2022/08/10 10:17:58;;;;;;;1.92;0.90;;;24.80;76.20;;;;;;5038068;28;20048;-43
2022/08/10 10:20:39;;;;;;;1.75;0.70;;;24.90;76.60;;;;;;5047403;28;20393;-43
2022/08/10 10:23:17;;;;;;;1.00;0.90;;;24.90;76.80;;;;;;5047239;28;20131;-43
2022/08/10 10:26:10;;;;;;;1.42;1.20;;;24.90;77.10;;;;;;5047265;28;20431;-44
2022/08/10 10:29:28;;;;;;;1.38;0.85;;;24.90;76.50;;;;;;5046752;28;20025;-43
2022/08/10 10:32:13;;;;;;;1.27;0.90;;;25.00;76.10;;;;;;5046916;28;20040;-44
2022/08/10 10:34:44;;;;;;;0.60;0.60;;;25.00;76.40;;;;;;5047183;28;20465;-44
2022/08/10 10:37:12;;;;;;;0.77;0.77;;;25.00;75.80;;;;;;5044757;28;20029;-44
2022/08/10 10:39:44;;;;;;;1.38;1.00;;;25.10;76.50;;;;;;5047351;28;20496;-44
2022/08/10 10:42:30;;;;;;;1.08;0.88;;;25.20;75.50;;;;;;5047101;28;20046;-44
2022/08/10 10:45:17;;;;;;;1.02;0.90;;;25.20;74.10;;;;;;5046409;28;20037;-44
2022/08/10 10:48:07;;;;;;;0.70;0.70;;;25.30;72.70;;;;;;5046534;28;20047;-46
2022/08/10 10:50:55;;;;;;;1.00;0.77;;;25.40;73.30;;;;;;5046110;28;20560;-44
2022/08/10 10:53:34;;;;;;;1.75;0.63;;;25.40;73.10;;;;;;5047174;28;20362;-44
2022/08/10 10:56:15;;;;;;;0.75;0.75;;;25.50;73.20;;;;;;5046643;28;20102;-43
2022/08/10 10:59:04;;;;;;;0.63;0.60;;;25.50;73.30;;;;;;5046317;28;20033;-43
2022/08/10 11:01:57;;;;;;;1.77;0.90;;;25.50;73.60;;;;;;5046407;28;20061;-44
2022/08/10 11:04:24;;;;;;;;;;;25.50;73.00;;;;;;5046530;28;20359;-43
2022/08/10 11:07:31;;;;;;;1.70;0.80;;;25.60;73.40;;;;;;5046864;28;19913;-43
2022/08/10 11:10:01;;;;;;;1.27;1.00;;;25.60;73.80;;;;;;5041046;28;20459;-43
2022/08/10 11:12:41;;;;;;;0.68;0.68;;;25.50;73.90;;;;;;5044969;28;20021;-43
2022/08/10 11:15:25;;;;;;;1.15;0.90;;;25.60;74.20;;;;;;5046375;28;20067;-45
2022/08/10 11:17:57;;;;;;;0.98;0.80;;;25.60;73.70;;;;;;5045771;28;20040;-43
2022/08/10 11:20:55;;;;;;;1.08;0.73;;;25.60;73.70;;;;;;5046714;28;20028;-43
2022/08/10 11:23:27;;;;;;;1.38;0.85;;;25.70;73.90;;;;;;5025739;28;20120;-43
2022/08/10 11:26:05;;;;;;;0.80;0.77;;;25.80;73.80;;;;;;5045130;28;20037;-43
2022/08/10 11:28:45;;;;;;;0.95;0.70;;;25.80;73.60;;;;;;5046207;28;20075;-43
2022/08/10 11:31:19;;;;;;;1.05;0.82;;;25.90;73.60;;;;;;5026374;28;20056;-43
2022/08/10 11:33:57;;;;;;;1.05;0.93;;;25.90;73.50;;;;;;5040498;28;20020;-43
2022/08/10 11:36:35;;;;;;;1.42;0.90;;;26.00;73.40;;;;;;5026282;28;20504;-43
2022/08/10 11:39:37;;;;;;;0.98;0.90;;;26.00;72.90;;;;;;5041616;28;20093;-43
2022/08/10 11:42:30;;;;;;;1.10;1.00;;;26.10;72.90;;;;;;5025487;28;20029;-42
2022/08/10 11:45:09;;;;;;;1.00;0.95;;;26.20;73.00;;;;;;5040987;28;20427;-43
2022/08/10 11:47:46;;;;;;;1.48;0.93;;;26.10;73.30;;;;;;5044349;28;20033;-43
2022/08/10 11:50:24;;;;;;;0.77;0.70;;;26.20;73.20;;;;;;5043656;28;20021;-43
2022/08/10 11:53:14;;;;;;;1.13;0.90;;;26.40;72.90;;;;;;5045936;28;20072;-44
2022/08/10 11:55:43;;;;;;;1.85;0.90;;;26.40;72.70;;;;;;5034640;28;20483;-43
2022/08/10 12:01:07;;;;;;;2.63;0.90;;;26.40;72.20;;;;;;5035110;28;20107;-44
2022/08/10 12:03:36;;;;;;;1.55;0.70;;;26.50;72.10;;;;;;5045180;28;20056;-44
2022/08/10 12:06:04;;;;;;;0.90;0.90;;;26.60;71.70;;;;;;5034871;28;20037;-44
2022/08/10 12:08:31;;;;;;;1.10;1.10;;;26.70;70.80;;;;;;5042167;28;20523;-44
2022/08/10 12:10:57;;;;;;;1.77;1.00;;;26.80;70.70;;;;;;5044264;28;20025;-44
2022/08/10 12:13:29;;;;;;;0.80;0.80;;;26.80;69.40;;;;;;5045686;28;20028;-43
2022/08/10 12:16:11;;;;;;;0.80;0.80;;;26.80;69.20;;;;;;5040585;28;20103;-43
2022/08/10 12:18:53;;;;;;;0.93;0.70;;;26.80;68.20;;;;;;5044933;28;20033;-43
2022/08/10 12:21:26;;;;;;;0.63;0.63;;;26.80;68.50;;;;;;5043474;28;20473;-43
2022/08/10 12:24:08;;;;;;;0.70;0.70;;;26.80;68.90;;;;;;5045166;28;20066;-43
2022/08/10 12:27:01;;;;;;;0.70;0.70;;;26.90;69.00;;;;;;5045013;28;20037;-43
2022/08/10 12:29:36;;;;;;;0.90;0.80;;;26.90;69.20;;;;;;5044089;28;20460;-43
2022/08/10 12:32:09;;;;;;;0.95;0.80;;;27.00;69.30;;;;;;5045154;28;20025;-43
2022/08/10 12:34:59;;;;;;;1.23;1.05;;;27.00;69.30;;;;;;5044886;28;20116;-43
2022/08/10 12:37:42;;;;;;;1.10;0.90;;;27.10;67.50;;;;;;5035683;28;20477;-43
2022/08/10 12:40:14;;;;;;;0.90;0.90;;;27.10;67.60;;;;;;5044866;28;20025;-43
2022/08/10 12:43:20;;;;;;;0.98;0.98;;;27.20;67.10;;;;;;5044551;28;20056;-43
2022/08/10 12:46:00;;;;;;;0.75;0.75;;;27.30;67.40;;;;;;5037545;28;20049;-43
2022/08/10 12:48:33;;;;;;;1.10;0.90;;;27.30;67.70;;;;;;5044383;28;20678;-42
2022/08/10 12:51:11;;;;;;;1.80;0.80;;;27.30;67.60;;;;;;5044823;28;20036;-43
2022/08/10 12:53:45;;;;;;;0.80;0.80;;;27.30;66.90;;;;;;5044953;28;20112;-43
2022/08/10 12:56:20;;;;;;;1.20;0.85;;;27.40;67.00;;;;;;5044804;28;20052;-43
2022/08/10 12:58:45;;;;;;;1.65;0.93;;;27.40;66.40;;;;;;5044522;28;20025;-43
2022/08/10 13:01:12;;;;;;;1.27;0.77;;;27.50;66.40;;;;;;5044593;28;20111;-43
2022/08/10 13:03:38;;;;;;;0.80;0.70;;;27.50;66.70;;;;;;5043757;28;20052;-43
2022/08/10 13:06:08;;;;;;;1.40;1.02;;;27.50;66.00;;;;;;5044647;28;20439;-43
2022/08/10 13:11:25;;;;;;;1.15;0.93;;;27.50;66.10;;;;;;5033563;28;20122;-42
2022/08/10 13:13:53;;;;;;;0.60;0.60;;;27.60;66.20;;;;;;5044831;28;20078;-43
2022/08/10 13:16:21;;;;;;;1.50;0.88;;;27.60;66.50;;;;;;5045031;28;20033;-42
2022/08/10 13:18:52;;;;;;;2.08;0.70;;;27.60;66.40;;;;;;5043569;28;20079;-43
2022/08/10 13:21:19;;;;;;;0.60;0.60;;;27.70;66.30;;;;;;5044588;28;20051;-43
2022/08/10 13:24:06;;;;;;;0.85;0.60;;;27.70;66.00;;;;;;5044185;28;20052;-43
2022/08/10 13:26:38;;;;;;;0.70;0.70;;;27.70;65.50;;;;;;5046595;28;20033;-43
2022/08/10 13:29:12;;;;;;;1.75;0.90;;;27.80;65.30;;;;;;5048547;28;20340;-42
2022/08/10 13:31:41;;;;;;;1.52;0.90;;;27.90;64.40;;;;;;5047671;28;20033;-43